Impacts TAF Board
For situational awareness. Not to be used for flight planning purposes.
IDs:

KPDX - Portland Intl Arpt, OR, US

Issued at 1610 UTC 30 Oct 2020
Updated at 1633 UTC 30 Oct 2020
Potential Impact None Slight Moderate High
Time<<31/05Z 31/06Z 31/07Z 31/08Z 31/09Z 31/10Z 31/11Z 31/12Z 31/13Z 31/14Z 31/15Z 31/16Z 31/17Z>>
Type PRVL PRVL PRVL PRVL PRVL PRVL PRVL
VIS >6 >6 >6 >6 >6 >6 1
CIG -- -- -- -- -- -- 4
Cover SCT SCT SCT SCT SCT SCT BKN
FltCat VFR VFR VFR VFR VFR VFR LIFR
WX -- -- -- -- -- -- BR
WDir 310 310 310 310 310 310 VRB
WSpd 4 4 4 4 4 4 0
WGst -- -- -- -- -- -- --
Raw TAF
KPDX 301610Z 3016/3112 23006KT P6SM -SHRA SCT015 OVC040
  FM301800 30007KT P6SM VCSH SCT025 BKN040
  FM302100 31004KT P6SM SCT040
  FM311100 00000KT 1SM BR BKN004


METAR Board
Radar Display
Forecast Discussion
For situational awareness. Not to be used for flight planning purposes.